Time;durP1;ratioP1;P1;durP2;ratioP2;P2;SDS_P1;SDS_P2;PMS_P1;PMS_P2;Temp;Humidity;BMP_temperature;BMP_pressure;BME280_temperature;BME280_humidity;BME280_pressure;Samples;Min_cycle;Max_cycle;Signal;HPM_P1;HPM_P2
2023/08/14 00:03:39;;;;;;;125.35;9.85;;;;;;;26.11;73.36;100325.34;10454556;28;20049;-72
2023/08/14 00:08:40;;;;;;;14.80;4.97;;;;;;;26.06;74.10;100322.66;10454295;28;20450;-74
2023/08/14 00:13:53;;;;;;;27.95;5.45;;;;;;;26.12;74.28;100335.16;10454577;28;20057;-72
2023/08/14 00:18:54;;;;;;;16.83;5.28;;;;;;;26.04;73.80;100328.34;10457719;28;20052;-72
2023/08/14 00:23:54;;;;;;;12.93;5.20;;;;;;;25.87;73.20;100306.81;10462319;28;20446;-72
2023/08/14 00:28:55;;;;;;;11.27;4.90;;;;;;;26.02;73.08;100332.41;10464472;28;20132;-72
2023/08/14 00:33:56;;;;;;;15.48;4.88;;;;;;;25.98;72.91;100340.31;10478231;28;20048;-75
2023/08/14 00:38:56;;;;;;;13.40;4.70;;;;;;;25.56;72.97;100269.75;10503285;28;20115;-72
2023/08/14 00:43:57;;;;;;;8.48;4.50;;;;;;;25.80;73.26;100328.00;10497278;28;20041;-72
2023/08/14 00:48:59;;;;;;;14.27;5.07;;;;;;;25.84;73.47;100342.72;10460418;28;20124;-72
2023/08/14 00:53:59;;;;;;;20.35;5.30;;;;;;;25.85;74.00;100349.81;10460063;28;20040;-72
2023/08/14 00:59:01;;;;;;;15.95;5.32;;;;;;;25.78;73.83;100351.94;10459879;28;20508;-72
2023/08/14 01:04:02;;;;;;;19.55;5.43;;;;;;;25.55;74.69;100344.25;10460260;28;20037;-72
2023/08/14 01:09:02;;;;;;;33.95;6.47;;;;;;;25.59;75.13;100357.06;10459149;28;20424;-72
2023/08/14 01:14:11;;;;;;;15.18;4.85;;;;;;;25.54;76.38;100365.22;10458828;28;20055;-72
2023/08/14 01:19:21;;;;;;;13.98;4.72;;;;;;;25.44;77.26;100366.00;10459340;28;20064;-74
2023/08/14 01:24:52;;;;;;;19.45;6.00;;;;;;;25.43;77.55;100372.53;10458111;28;20064;-72
2023/08/14 01:29:57;;;;;;;11.68;4.75;;;;;;;25.15;77.35;100340.31;10458104;28;20489;-72
2023/08/14 01:34:57;;;;;;;15.90;5.10;;;;;;;25.04;76.77;100342.97;10459246;28;20106;-73
2023/08/14 01:40:08;;;;;;;40.10;6.82;;;;;;;25.27;78.99;100387.94;10459233;28;20127;-72
2023/08/14 01:45:22;;;;;;;100.75;9.85;;;;;;;24.90;79.84;100362.72;10458512;28;20128;-72
2023/08/14 01:50:25;;;;;;;16.95;6.00;;;;;;;25.09;78.13;100403.84;10456743;28;20047;-72
2023/08/14 01:55:26;;;;;;;;;;;;;;;25.30;77.54;100410.25;10458673;28;20127;-72
2023/08/14 02:00:29;;;;;;;21.67;5.85;;;;;;;25.11;77.03;100410.66;10459972;28;20007;-72
2023/08/14 02:05:29;;;;;;;49.63;6.73;;;;;;;24.26;77.28;100284.81;10457912;28;20041;-74
2023/08/14 02:10:30;;;;;;;34.50;7.15;;;;;;;24.39;77.62;100316.97;10458325;28;20644;-72
2023/08/14 02:15:31;;;;;;;24.52;5.22;;;;;;;25.07;77.61;100404.13;10456690;28;20451;-72
2023/08/14 02:20:32;;;;;;;22.80;5.78;;;;;;;25.13;77.14;100411.25;10468407;28;20044;-72
2023/08/14 02:25:32;;;;;;;16.40;5.57;;;;;;;25.13;76.80;100408.53;10456613;28;20051;-73
2023/08/14 02:30:38;;;;;;;30.23;6.55;;;;;;;25.10;77.18;100406.31;10464035;28;20087;-72
2023/08/14 02:35:39;;;;;;;42.35;6.88;;;;;;;25.20;77.01;100411.84;10467028;28;20052;-72
2023/08/14 02:40:40;;;;;;;13.10;5.03;;;;;;;25.25;76.41;100411.06;10456323;28;20484;-72
2023/08/14 02:45:41;;;;;;;43.17;5.97;;;;;;;25.03;76.06;100348.66;10456799;28;20037;-73
2023/08/14 02:50:42;;;;;;;14.82;5.10;;;;;;;25.25;74.80;100362.94;10455881;28;20083;-72
2023/08/14 02:55:42;;;;;;;22.90;5.22;;;;;;;25.87;74.24;100439.34;10455111;28;20071;-72
2023/08/14 03:00:45;;;;;;;20.73;5.22;;;;;;;26.17;73.63;100449.50;10455467;28;20037;-72
2023/08/14 03:05:46;;;;;;;17.60;4.97;;;;;;;26.24;72.46;100383.91;10455641;28;20034;-72
2023/08/14 03:10:47;;;;;;;18.02;5.03;;;;;;;27.23;70.33;100447.94;10457370;28;20044;-73
2023/08/14 03:15:48;;;;;;;11.23;4.20;;;;;;;27.23;68.64;100390.66;10464122;28;20106;-72
2023/08/14 03:20:49;;;;;;;11.02;4.20;;;;;;;27.99;67.15;100443.28;10464951;28;20051;-72
2023/08/14 03:25:49;;;;;;;13.27;4.30;;;;;;;28.11;65.05;100394.59;10463338;28;20527;-74
2023/08/14 03:30:51;;;;;;;17.75;4.32;;;;;;;28.87;63.58;100466.19;10454036;28;20044;-72
2023/08/14 03:35:54;;;;;;;25.80;4.18;;;;;;;28.29;61.58;100357.59;10454920;28;20041;-72
2023/08/14 03:40:55;;;;;;;15.68;4.28;;;;;;;28.47;63.10;100457.22;10460662;28;20041;-72
2023/08/14 03:45:56;;;;;;;14.05;4.10;;;;;;;28.10;63.91;100458.53;10459061;28;20396;-72
2023/08/14 03:50:57;;;;;;;26.33;4.70;;;;;;;27.63;64.75;100451.63;10453792;28;20127;-72
2023/08/14 03:55:57;;;;;;;16.25;4.38;;;;;;;27.67;64.68;100482.72;10471010;28;20048;-72
2023/08/14 04:00:58;;;;;;;24.98;4.40;;;;;;;27.53;64.85;100485.22;10465021;28;20079;-71
2023/08/14 04:06:00;;;;;;;39.15;5.05;;;;;;;27.50;64.83;100485.78;10462585;28;20068;-72
2023/08/14 04:11:01;;;;;;;23.33;4.50;;;;;;;27.82;63.90;100489.22;10475537;28;20140;-72
2023/08/14 04:16:03;;;;;;;17.77;4.68;;;;;;;27.98;64.13;100494.34;10474874;28;20135;-71
2023/08/14 04:21:04;;;;;;;25.60;4.28;;;;;;;28.07;63.23;100477.41;10472671;28;20047;-72
2023/08/14 04:26:04;;;;;;;32.05;4.30;;;;;;;28.57;60.60;100379.78;10470636;28;20140;-72
2023/08/14 04:31:05;;;;;;;20.73;4.25;;;;;;;29.28;60.28;100476.75;10470277;28;20045;-71
2023/08/14 04:36:06;;;;;;;23.25;4.95;;;;;;;29.42;60.20;100496.88;10464554;28;20052;-72
2023/08/14 04:41:06;;;;;;;15.20;4.50;;;;;;;29.44;60.24;100467.28;10462585;28;20041;-73
2023/08/14 04:46:10;;;;;;;29.17;4.57;;;;;;;30.11;58.59;100494.69;10469206;28;20067;-73
2023/08/14 04:51:11;;;;;;;21.42;4.60;;;;;;;31.09;57.38;100499.53;10460758;28;20049;-72
2023/08/14 04:56:12;;;;;;;13.20;3.83;;;;;;;31.20;52.85;100382.94;10459635;28;20451;-73
2023/08/14 05:01:13;;;;;;;19.20;3.58;;;;;;;32.38;50.04;100509.59;10458908;28;20041;-73
2023/08/14 05:06:14;;;;;;;10.40;3.50;;;;;;;32.33;48.87;100444.53;10460401;28;20386;-72
2023/08/14 05:11:15;;;;;;;12.07;3.75;;;;;;;32.21;48.08;100456.09;10459965;28;20053;-73
2023/08/14 05:16:16;;;;;;;11.57;3.35;;;;;;;32.44;47.76;100498.19;10459889;28;20504;-73
2023/08/14 05:21:17;;;;;;;11.80;3.38;;;;;;;32.05;47.34;100439.13;10458973;28;20106;-73
2023/08/14 05:26:17;;;;;;;9.35;3.58;;;;;;;32.44;47.52;100469.84;10458403;28;20029;-72
2023/08/14 05:31:18;;;;;;;10.48;3.50;;;;;;;32.67;46.45;100479.78;10459232;28;20132;-73
2023/08/14 05:36:19;;;;;;;8.60;3.58;;;;;;;32.59;46.18;100463.22;10458592;28;20053;-73
2023/08/14 05:41:21;;;;;;;12.38;3.42;;;;;;;33.06;46.09;100516.78;10458910;28;20063;-73
2023/08/14 05:46:23;;;;;;;;;;;;;;;33.60;46.58;100528.56;10458950;28;20045;-72
2023/08/14 05:51:24;;;;;;;14.73;3.50;;;;;;;33.46;44.99;100502.25;10458476;28;20015;-73
2023/08/14 05:56:25;;;;;;;15.40;3.58;;;;;;;33.28;44.14;100465.56;10458118;28;20049;-73
2023/08/14 06:01:26;;;;;;;10.48;3.63;;;;;;;33.78;44.41;100514.88;10458056;28;20122;-72
2023/08/14 06:06:27;;;;;;;15.23;3.60;;;;;;;33.52;44.06;100509.25;10458341;28;20040;-72
2023/08/14 06:11:27;;;;;;;15.27;4.05;;;;;;;33.20;44.46;100491.91;10457840;28;20442;-73
2023/08/14 06:16:28;;;;;;;12.98;3.70;;;;;;;33.29;44.41;100508.47;10456303;28;20064;-72
2023/08/14 06:21:29;;;;;;;14.10;3.92;;;;;;;33.27;44.22;100503.31;10456641;28;20033;-71
2023/08/14 06:26:30;;;;;;;12.15;3.85;;;;;;;33.47;44.51;100514.88;10457249;28;20037;-72
2023/08/14 06:31:30;;;;;;;14.68;3.83;;;;;;;33.64;44.01;100520.47;10456970;28;20037;-72
2023/08/14 06:36:31;;;;;;;12.50;3.42;;;;;;;33.69;43.04;100519.53;10456053;28;20056;-72
2023/08/14 06:41:32;;;;;;;17.13;3.90;;;;;;;33.81;42.48;100508.72;10455809;28;20037;-72
2023/08/14 06:46:33;;;;;;;9.57;3.78;;;;;;;34.27;42.13;100510.09;10456063;28;20037;-72
2023/08/14 06:51:33;;;;;;;7.18;3.60;;;;;;;34.34;41.17;100452.50;10456113;28;20037;-72
2023/08/14 06:56:34;;;;;;;24.35;4.22;;;;;;;34.99;40.72;100497.56;10455773;28;20052;-72
2023/08/14 07:01:35;;;;;;;19.58;4.38;;;;;;;35.13;40.26;100489.13;10455079;28;20408;-72
2023/08/14 07:06:35;;;;;;;14.95;4.30;;;;;;;35.47;39.87;100485.41;10455048;28;20045;-73
2023/08/14 07:11:38;;;;;;;14.32;3.83;;;;;;;35.47;38.60;100477.13;10456246;28;20131;-72
2023/08/14 07:16:39;;;;;;;7.25;3.95;;;;;;;35.56;38.70;100479.88;10455144;28;20045;-72
2023/08/14 07:21:39;;;;;;;11.45;4.28;;;;;;;35.83;38.03;100468.31;10455507;28;20547;-74
2023/08/14 07:26:40;;;;;;;15.32;4.60;;;;;;;36.08;37.82;100485.09;10452942;28;20037;-72
2023/08/14 07:31:41;;;;;;;11.07;4.20;;;;;;;35.99;37.19;100490.66;10455173;28;20120;-75
2023/08/14 07:36:43;;;;;;;11.82;4.60;;;;;;;36.06;37.26;100481.88;10454593;28;20049;-72
2023/08/14 07:41:43;;;;;;;8.90;4.20;;;;;;;36.06;37.32;100462.50;10454684;28;20037;-72
2023/08/14 07:46:44;;;;;;;7.80;3.97;;;;;;;36.24;37.06;100471.47;10454424;28;20444;-73
2023/08/14 07:51:45;;;;;;;8.93;4.32;;;;;;;36.36;36.60;100443.88;10454615;28;20041;-77
2023/08/14 07:56:46;;;;;;;7.78;3.90;;;;;;;36.51;35.88;100454.31;10454067;28;20053;-73
2023/08/14 08:01:47;;;;;;;10.00;5.07;;;;;;;36.54;36.33;100444.53;10454220;28;20041;-74
2023/08/14 08:06:47;;;;;;;17.33;4.80;;;;;;;36.81;36.63;100456.16;10454182;28;20868;-74
2023/08/14 08:11:48;;;;;;;13.83;5.60;;;;;;;36.61;36.06;100421.84;10454410;28;20139;-74
2023/08/14 08:16:49;;;;;;;9.00;4.70;;;;;;;37.04;35.40;100464.84;10453319;28;20515;-73
2023/08/14 08:21:50;;;;;;;14.07;4.80;;;;;;;36.93;35.61;100453.41;10453161;28;20041;-73
2023/08/14 08:26:51;;;;;;;12.43;4.47;;;;;;;36.88;35.66;100428.69;10453177;28;20394;-73
2023/08/14 08:31:51;;;;;;;14.63;4.97;;;;;;;36.83;35.18;100420.59;10453974;28;20041;-74
2023/08/14 08:36:52;;;;;;;13.43;4.67;;;;;;;37.27;35.18;100459.69;10453200;28;20507;-73
2023/08/14 08:41:56;;;;;;;16.47;5.70;;;;;;;37.09;35.12;100401.75;10459050;28;20045;-74
2023/08/14 08:47:06;;;;;;;11.75;4.65;;;;;;;37.43;35.50;100457.88;10460487;28;20393;-73
2023/08/14 08:52:07;;;;;;;10.15;4.43;;;;;;;37.46;34.68;100452.47;10460681;28;20118;-73
2023/08/14 08:57:09;;;;;;;10.18;4.50;;;;;;;37.68;34.65;100462.25;10460644;28;20048;-74
2023/08/14 09:02:10;;;;;;;8.07;4.10;;;;;;;37.82;34.93;100439.72;10461477;28;20037;-73
2023/08/14 09:07:11;;;;;;;10.73;4.40;;;;;;;38.01;34.16;100455.75;10460233;28;20037;-74
2023/08/14 09:12:12;;;;;;;11.88;4.82;;;;;;;37.79;34.48;100395.25;10469472;28;20052;-75
2023/08/14 09:17:13;;;;;;;18.47;5.20;;;;;;;37.97;33.87;100426.31;10462754;28;20049;-76
2023/08/14 09:22:14;;;;;;;13.27;4.63;;;;;;;37.74;34.18;100392.72;10476799;28;20381;-75
2023/08/14 09:27:15;;;;;;;21.98;4.72;;;;;;;37.75;34.08;100386.81;10480043;28;20037;-76
2023/08/14 09:32:16;;;;;;;10.57;4.43;;;;;;;38.20;33.60;100432.09;10485466;28;20029;-75
2023/08/14 09:37:19;;;;;;;8.07;4.03;;;;;;;37.95;33.69;100390.59;10477749;28;20045;-74
2023/08/14 09:42:20;;;;;;;12.43;4.50;;;;;;;37.92;33.58;100371.84;10478150;28;20135;-76
2023/08/14 09:47:21;;;;;;;12.10;4.37;;;;;;;38.31;33.30;100436.00;10492116;28;20497;-74
2023/08/14 09:52:24;;;;;;;11.63;4.57;;;;;;;38.41;33.88;100429.16;10474966;28;20174;-75
2023/08/14 09:57:25;;;;;;;13.10;4.35;;;;;;;38.46;33.29;100432.47;10475705;28;20037;-74
2023/08/14 10:02:26;;;;;;;14.37;4.93;;;;;;;38.40;33.11;100424.78;10484156;28;20041;-74
2023/08/14 10:07:29;;;;;;;12.95;4.80;;;;;;;38.39;32.55;100425.91;10477800;28;20621;-74
2023/08/14 10:12:37;;;;;;;12.60;5.00;;;;;;;38.59;32.96;100430.44;10481994;28;20481;-74
2023/08/14 10:17:57;;;;;;;8.13;4.28;;;;;;;38.81;31.47;100424.31;10486951;28;20043;-75
2023/08/14 10:22:59;;;;;;;10.90;4.47;;;;;;;38.74;32.10;100439.94;10488223;28;20040;-74
2023/08/14 10:28:00;;;;;;;11.15;4.03;;;;;;;38.48;32.38;100432.13;10480695;28;20452;-75
2023/08/14 10:33:02;;;;;;;9.90;4.50;;;;;;;37.98;32.88;100412.06;10484021;28;20074;-74
2023/08/14 10:38:03;;;;;;;15.05;5.22;;;;;;;38.24;32.58;100394.19;10489258;28;20098;-77
2023/08/14 10:43:06;;;;;;;10.93;4.43;;;;;;;38.25;32.28;100423.53;10498341;28;20036;-73
2023/08/14 10:48:09;;;;;;;11.73;4.95;;;;;;;38.29;33.79;100427.22;10498171;28;20090;-74
2023/08/14 10:53:10;;;;;;;9.10;4.45;;;;;;;38.34;33.81;100399.22;10497247;28;20044;-74
2023/08/14 10:58:32;;;;;;;12.13;4.70;;;;;;;37.99;33.22;100360.19;10497394;28;20449;-74
2023/08/14 11:03:53;;;;;;;18.38;4.55;;;;;;;37.87;33.69;100363.78;10496967;28;20135;-74
2023/08/14 11:09:14;;;;;;;;;;;;;;;38.34;33.50;100413.09;10497370;28;20037;-74
2023/08/14 11:14:15;;;;;;;8.38;4.38;;;;;;;37.55;33.76;100360.09;10496176;28;20011;-74
2023/08/14 11:19:18;;;;;;;8.80;4.60;;;;;;;37.36;33.99;100355.09;10496562;28;20135;-74
2023/08/14 11:24:19;;;;;;;31.73;5.55;;;;;;;37.58;35.24;100362.97;10496246;28;20044;-74
2023/08/14 11:29:20;;;;;;;14.20;5.00;;;;;;;37.92;34.00;100388.50;10496957;28;20089;-74
2023/08/14 11:34:22;;;;;;;38.57;6.87;;;;;;;37.96;34.77;100405.25;10496176;28;20522;-74
2023/08/14 11:39:22;;;;;;;;;;;;;;;38.16;34.58;100406.25;10482262;28;20149;-74
2023/08/14 11:44:23;;;;;;;6.93;4.20;;;;;;;37.74;34.04;100365.00;10458299;28;19920;-76
2023/08/14 11:49:24;;;;;;;25.53;8.83;;;;;;;37.93;34.49;100392.91;10454275;28;20492;-74
2023/08/14 11:54:25;;;;;;;26.58;5.18;;;;;;;38.01;34.50;100391.16;10460561;28;20047;-74
2023/08/14 11:59:26;;;;;;;14.40;4.90;;;;;;;38.44;33.88;100365.41;10458167;28;20047;-74
2023/08/14 12:04:27;;;;;;;15.30;5.20;;;;;;;38.34;33.08;100360.38;10454587;28;20041;-74
2023/08/14 12:09:28;;;;;;;8.30;4.50;;;;;;;38.47;33.48;100375.84;10454280;28;20056;-74
2023/08/14 12:14:39;;;;;;;13.70;4.70;;;;;;;38.55;32.39;100360.97;10477253;28;20054;-74
2023/08/14 12:19:40;;;;;;;10.43;3.92;;;;;;;38.50;32.85;100374.28;10500022;28;20044;-74
2023/08/14 12:24:44;;;;;;;12.83;4.67;;;;;;;38.61;32.19;100367.06;10460228;28;20052;-74
2023/08/14 12:29:46;;;;;;;13.48;4.68;;;;;;;38.67;31.82;100321.19;10471393;28;20110;-74
2023/08/14 12:34:46;;;;;;;;;;;;;;;39.27;32.04;100376.63;10462157;28;20052;-74
2023/08/14 12:39:55;;;;;;;14.17;8.83;;;;;;;38.52;32.59;100341.44;10463762;28;19932;-77
2023/08/14 12:44:56;;;;;;;60.42;43.50;;;;;;;38.39;32.11;100335.19;10495083;28;20036;-74
2023/08/14 12:49:58;;;;;;;20.77;10.80;;;;;;;38.20;32.27;100349.69;10500085;28;20106;-74
2023/08/14 12:54:59;;;;;;;39.42;31.42;;;;;;;38.10;32.60;100375.16;10469458;28;20041;-75
2023/08/14 12:59:59;;;;;;;13.37;8.50;;;;;;;37.72;32.91;100314.63;10459228;28;20395;-74
2023/08/14 13:05:00;;;;;;;52.80;34.30;;;;;;;37.99;32.87;100358.22;10471488;28;20047;-74
2023/08/14 13:10:02;;;;;;;19.70;13.10;;;;;;;37.82;33.27;100316.91;10460394;28;20543;-74
2023/08/14 13:15:03;;;;;;;16.10;8.30;;;;;;;37.85;33.01;100378.00;10470576;28;20561;-75
2023/08/14 13:20:05;;;;;;;16.27;6.25;;;;;;;37.15;33.34;100317.28;10472050;28;20095;-74
2023/08/14 13:25:06;;;;;;;12.07;4.53;;;;;;;37.15;33.33;100355.25;10476267;28;20094;-73
2023/08/14 13:30:07;;;;;;;10.87;4.17;;;;;;;37.09;33.64;100357.44;10487548;28;20189;-74
2023/08/14 13:35:08;;;;;;;;;;;;;;;37.38;33.87;100370.22;10469673;28;20044;-74
2023/08/14 13:40:09;;;;;;;13.93;4.60;;;;;;;36.97;34.20;100369.28;10458755;28;19916;-75
2023/08/14 13:45:10;;;;;;;45.03;7.15;;;;;;;36.49;34.97;100312.72;10477831;28;20051;-73
2023/08/14 13:50:11;;;;;;;20.43;5.60;;;;;;;36.00;35.13;100257.28;10465166;28;20052;-73
2023/08/14 13:55:11;;;;;;;12.27;4.40;;;;;;;36.74;34.48;100370.91;10483983;28;20135;-73
2023/08/14 14:00:12;;;;;;;20.20;4.83;;;;;;;36.59;34.27;100360.47;10470795;28;20405;-73
2023/08/14 14:05:15;;;;;;;9.87;5.03;;;;;;;36.61;34.23;100370.06;10495857;28;20067;-73
2023/08/14 14:10:15;;;;;;;22.17;5.00;;;;;;;36.53;34.76;100369.03;10499436;28;20064;-73
2023/08/14 14:15:16;;;;;;;12.07;4.60;;;;;;;36.46;35.13;100357.66;10499100;28;20040;-73
2023/08/14 14:20:19;;;;;;;18.75;4.93;;;;;;;36.26;35.22;100347.50;10498793;28;20132;-73
2023/08/14 14:25:19;;;;;;;13.73;4.13;;;;;;;36.16;35.07;100345.13;10498454;28;20044;-73
2023/08/14 14:30:20;;;;;;;14.85;4.57;;;;;;;36.03;35.13;100356.16;10499011;28;20040;-73
2023/08/14 14:35:21;;;;;;;80.07;7.90;;;;;;;36.01;35.63;100363.94;10497310;28;20048;-73
2023/08/14 14:40:22;;;;;;;23.77;4.82;;;;;;;35.93;34.67;100366.78;10496825;28;20404;-74
2023/08/14 14:45:22;;;;;;;9.23;4.60;;;;;;;35.35;34.36;100290.00;10498298;28;20051;-76
2023/08/14 14:50:24;;;;;;;12.95;5.47;;;;;;;35.65;34.07;100350.75;10497258;28;20154;-73
2023/08/14 14:55:27;;;;;;;47.30;8.77;;;;;;;35.72;33.79;100373.16;10496953;28;20049;-73
2023/08/14 15:00:28;;;;;;;8.80;4.28;;;;;;;35.71;33.74;100368.75;10495574;28;20028;-73
2023/08/14 15:05:29;;;;;;;19.10;5.88;;;;;;;35.61;34.12;100350.63;10496510;28;20047;-73
2023/08/14 15:10:30;;;;;;;17.40;6.45;;;;;;;35.50;34.19;100348.56;10497693;28;20052;-73
2023/08/14 15:15:31;;;;;;;18.75;6.40;;;;;;;35.47;34.06;100372.13;10496189;28;20048;-73
2023/08/14 15:20:31;;;;;;;20.25;6.55;;;;;;;35.23;33.80;100361.72;10496593;28;20043;-74
2023/08/14 15:25:34;;;;;;;19.88;5.40;;;;;;;35.03;33.77;100362.44;10495642;28;20053;-73
2023/08/14 15:30:35;;;;;;;14.95;5.10;;;;;;;34.98;34.50;100375.31;10496640;28;20040;-73
2023/08/14 15:35:36;;;;;;;14.87;4.50;;;;;;;34.49;34.28;100327.91;10476585;28;20097;-72
2023/08/14 15:40:45;;;;;;;14.02;4.60;;;;;;;34.73;34.91;100387.25;10478564;28;20132;-75
2023/08/14 15:45:47;;;;;;;18.58;4.70;;;;;;;34.55;34.90;100386.47;10494760;28;20058;-75
2023/08/14 15:50:50;;;;;;;10.45;5.05;;;;;;;34.06;35.53;100348.09;10494741;28;20051;-75
2023/08/14 15:55:50;;;;;;;9.57;4.18;;;;;;;33.93;35.20;100337.22;10482696;28;20049;-76
2023/08/14 16:00:51;;;;;;;30.30;5.72;;;;;;;34.12;35.87;100401.13;10484028;28;20041;-76
2023/08/14 16:05:57;;;;;;;10.70;4.57;;;;;;;33.85;35.75;100385.69;10436825;28;20063;-76
2023/08/14 16:10:58;;;;;;;21.08;4.47;;;;;;;33.70;35.48;100377.91;10454144;28;20052;-76
2023/08/14 16:15:59;;;;;;;8.02;4.00;;;;;;;33.62;35.90;100385.00;10453493;28;20049;-76
2023/08/14 16:20:59;;;;;;;12.07;4.47;;;;;;;33.61;35.77;100403.47;10454400;28;20041;-76
2023/08/14 16:26:00;;;;;;;9.27;4.13;;;;;;;33.49;35.70;100413.47;10453731;28;20041;-75
2023/08/14 16:31:01;;;;;;;23.38;5.10;;;;;;;33.37;36.25;100419.59;10453589;28;20102;-75
2023/08/14 16:36:01;;;;;;;12.35;4.60;;;;;;;33.29;36.29;100423.13;10453590;28;20045;-75
2023/08/14 16:41:03;;;;;;;11.68;4.55;;;;;;;33.10;36.10;100404.94;10452258;28;20037;-76
2023/08/14 16:46:04;;;;;;;12.95;4.20;;;;;;;32.72;36.50;100358.59;10452842;28;20415;-76
2023/08/14 16:51:05;;;;;;;11.85;4.75;;;;;;;32.61;36.64;100357.25;10453451;28;20166;-75
2023/08/14 16:56:06;;;;;;;13.15;4.40;;;;;;;32.83;36.89;100427.91;10453067;28;20060;-76
2023/08/14 17:01:07;;;;;;;9.82;4.68;;;;;;;32.81;37.21;100443.91;10457622;28;20514;-76
2023/08/14 17:06:07;;;;;;;10.15;4.30;;;;;;;31.92;36.99;100319.13;10459287;28;20123;-76
2023/08/14 17:11:08;;;;;;;19.08;4.75;;;;;;;32.40;37.12;100400.09;10460575;28;20138;-76
2023/08/14 17:16:10;;;;;;;10.48;4.13;;;;;;;32.47;37.07;100441.78;10459991;28;20047;-76
2023/08/14 17:21:10;;;;;;;10.50;3.92;;;;;;;32.45;36.83;100444.00;10458808;28;20036;-76
2023/08/14 17:26:11;;;;;;;10.23;4.00;;;;;;;32.00;36.98;100380.75;10459347;28;20427;-75
2023/08/14 17:31:12;;;;;;;10.73;4.13;;;;;;;31.93;37.28;100378.44;10459421;28;20047;-75
2023/08/14 17:36:12;;;;;;;28.65;4.88;;;;;;;31.87;37.22;100376.88;10458790;28;20124;-75
2023/08/14 17:41:13;;;;;;;11.68;4.38;;;;;;;32.22;37.04;100435.75;10458368;28;20048;-76
2023/08/14 17:46:14;;;;;;;9.70;4.47;;;;;;;32.20;37.22;100448.97;10458363;28;20033;-75
2023/08/14 17:51:15;;;;;;;13.07;4.00;;;;;;;32.03;37.31;100435.06;10458742;28;20047;-76
2023/08/14 17:56:15;;;;;;;24.23;5.32;;;;;;;32.02;37.80;100455.44;10472358;28;20094;-76
2023/08/14 18:01:16;;;;;;;9.75;4.50;;;;;;;31.82;37.62;100431.94;10489178;28;20040;-80
2023/08/14 18:06:17;;;;;;;13.13;4.50;;;;;;;31.86;37.92;100452.19;10481111;28;20114;-76
2023/08/14 18:11:19;;;;;;;19.30;4.68;;;;;;;31.78;37.96;100458.41;10477262;28;20071;-75
2023/08/14 18:16:20;;;;;;;6.22;3.92;;;;;;;31.68;37.84;100453.94;10473386;28;20048;-76
2023/08/14 18:21:21;;;;;;;5.82;3.47;;;;;;;31.67;38.31;100462.47;10483198;28;20048;-76
2023/08/14 18:26:22;;;;;;;9.48;4.22;;;;;;;31.41;38.24;100426.47;10477311;28;20078;-76
2023/08/14 18:31:23;;;;;;;12.07;3.92;;;;;;;31.49;38.47;100429.34;10474350;28;20041;-76
2023/08/14 18:36:23;;;;;;;11.45;4.40;;;;;;;31.51;38.79;100448.25;10484171;28;20049;-76
2023/08/14 18:41:24;;;;;;;17.45;4.05;;;;;;;31.06;38.77;100393.13;10475608;28;20037;-76
2023/08/14 18:46:25;;;;;;;20.63;4.90;;;;;;;31.32;38.79;100446.41;10482699;28;20036;-76
2023/08/14 18:51:26;;;;;;;10.15;4.70;;;;;;;30.93;38.57;100394.72;10477020;28;20055;-76
2023/08/14 18:56:27;;;;;;;8.80;3.97;;;;;;;30.76;38.40;100369.81;10495095;28;20417;-76
2023/08/14 19:01:28;;;;;;;15.40;4.25;;;;;;;30.41;38.76;100320.78;10495589;28;20053;-77
2023/08/14 19:06:29;;;;;;;11.77;3.88;;;;;;;30.84;38.26;100388.31;10477643;28;20053;-76
2023/08/14 19:11:30;;;;;;;9.07;3.65;;;;;;;31.13;38.73;100460.19;10455731;28;20488;-76
2023/08/14 19:16:31;;;;;;;7.60;3.58;;;;;;;31.09;38.55;100472.09;10454389;28;20045;-76
2023/08/14 19:21:32;;;;;;;10.02;3.42;;;;;;;30.95;37.97;100452.84;10455152;28;20393;-76
2023/08/14 19:26:32;;;;;;;8.77;3.30;;;;;;;31.02;37.47;100468.91;10454162;28;20032;-76
2023/08/14 19:31:34;;;;;;;6.53;3.40;;;;;;;30.19;37.47;100353.47;10463248;28;20040;-76
2023/08/14 19:36:35;;;;;;;16.07;4.13;;;;;;;30.84;37.81;100457.72;10478649;28;20056;-75
2023/08/14 19:41:36;;;;;;;6.70;2.92;;;;;;;30.85;37.65;100464.81;10474582;28;20041;-76
2023/08/14 19:46:38;;;;;;;6.97;2.90;;;;;;;30.41;36.84;100397.53;10454160;28;20041;-76
2023/08/14 19:51:39;;;;;;;5.03;3.00;;;;;;;30.39;37.35;100394.25;10454643;28;20163;-77
2023/08/14 19:56:40;;;;;;;10.77;3.03;;;;;;;30.71;37.24;100452.97;10454248;28;20136;-76
2023/08/14 20:01:40;;;;;;;4.32;3.13;;;;;;;30.65;37.56;100452.22;10454000;28;20041;-76
2023/08/14 20:06:41;;;;;;;6.88;3.10;;;;;;;30.23;37.82;100409.34;10468623;28;20070;-76
2023/08/14 20:11:42;;;;;;;6.95;3.05;;;;;;;30.54;37.75;100469.13;10486214;28;20421;-76
2023/08/14 20:16:43;;;;;;;14.00;3.20;;;;;;;30.08;38.43;100415.81;10453975;28;20036;-76
2023/08/14 20:21:44;;;;;;;15.23;3.88;;;;;;;30.37;38.88;100467.75;10458728;28;20044;-76
2023/08/14 20:26:44;;;;;;;6.60;3.05;;;;;;;29.88;38.40;100392.28;10495087;28;20045;-76
2023/08/14 20:31:45;;;;;;;8.00;3.72;;;;;;;29.90;39.20;100406.50;10494550;28;20041;-76
2023/08/14 20:36:47;;;;;;;10.18;3.33;;;;;;;29.85;39.16;100409.28;10475688;28;20458;-76
2023/08/14 20:41:48;;;;;;;14.10;3.90;;;;;;;30.10;39.25;100457.44;10461484;28;20052;-76
2023/08/14 20:46:49;;;;;;;8.20;3.15;;;;;;;30.08;39.65;100467.06;10460703;28;20059;-76
2023/08/14 20:51:49;;;;;;;8.55;3.20;;;;;;;29.37;39.70;100362.00;10460913;28;20040;-76
2023/08/14 20:56:50;;;;;;;9.90;3.60;;;;;;;29.94;39.79;100456.81;10461163;28;20055;-76
2023/08/14 21:01:53;;;;;;;12.45;3.53;;;;;;;29.95;40.05;100468.63;10460619;28;20041;-76
2023/08/14 21:06:53;;;;;;;6.78;3.40;;;;;;;29.85;40.10;100463.25;10461630;28;20427;-76
2023/08/14 21:11:54;;;;;;;6.55;3.28;;;;;;;29.80;41.02;100461.41;10460386;28;20143;-76
2023/08/14 21:16:55;;;;;;;9.45;3.00;;;;;;;29.33;40.96;100403.66;10459717;28;20178;-77
2023/08/14 21:21:56;;;;;;;9.75;3.60;;;;;;;29.75;40.45;100477.91;10459261;28;20041;-77
2023/08/14 21:26:56;;;;;;;9.30;3.13;;;;;;;29.71;40.42;100490.56;10459580;28;20064;-77
2023/08/14 21:31:57;;;;;;;7.90;3.13;;;;;;;29.64;40.85;100490.06;10470890;28;20119;-78
2023/08/14 21:36:58;;;;;;;6.95;3.38;;;;;;;29.62;40.52;100492.31;10459519;28;20049;-77
2023/08/14 21:41:59;;;;;;;8.40;3.13;;;;;;;29.51;40.63;100495.13;10459249;28;20127;-76
2023/08/14 21:46:59;;;;;;;5.30;3.75;;;;;;;29.35;40.29;100485.47;10457741;28;20036;-76
2023/08/14 21:52:00;;;;;;;8.02;3.47;;;;;;;28.98;41.02;100445.84;10458560;28;20041;-76
2023/08/14 21:57:01;;;;;;;8.55;3.50;;;;;;;29.34;40.98;100508.44;10457770;28;20063;-76
2023/08/14 22:02:02;;;;;;;7.32;3.15;;;;;;;28.75;41.05;100411.06;10458392;28;20069;-76
2023/08/14 22:07:03;;;;;;;8.88;2.75;;;;;;;29.31;41.05;100504.34;10457520;28;20061;-77
2023/08/14 22:12:04;;;;;;;12.10;3.72;;;;;;;29.28;41.39;100515.06;10457207;28;20057;-77
2023/08/14 22:17:05;;;;;;;11.32;3.08;;;;;;;29.24;41.32;100530.44;10467916;28;20052;-77
2023/08/14 22:22:05;;;;;;;4.28;2.90;;;;;;;28.88;41.57;100473.28;10498936;28;20404;-77
2023/08/14 22:27:06;;;;;;;4.43;2.78;;;;;;;28.50;41.86;100417.56;10498088;28;20132;-76
2023/08/14 22:32:07;;;;;;;6.60;2.70;;;;;;;29.04;42.05;100526.75;10460715;28;20115;-77
2023/08/14 22:37:09;;;;;;;7.32;3.00;;;;;;;28.84;42.41;100499.59;10456212;28;20143;-77
2023/08/14 22:42:10;;;;;;;6.33;3.10;;;;;;;28.81;42.66;100500.97;10456977;28;20029;-77
2023/08/14 22:47:11;;;;;;;7.85;3.05;;;;;;;28.79;42.79;100507.81;10456605;28;20135;-77
2023/08/14 22:52:11;;;;;;;6.30;3.15;;;;;;;28.63;43.20;100488.00;10456405;28;20037;-78
2023/08/14 22:57:12;;;;;;;8.20;3.10;;;;;;;28.44;43.41;100476.91;10455066;28;20044;-77